createdAt,value
2022-11-29T00:03:10.678Z,2.19
2022-11-29T00:08:17.542Z,2.28
2022-11-29T00:13:24.504Z,2.33
2022-11-29T00:18:31.614Z,2.19
2022-11-29T00:23:38.593Z,2.32
2022-11-29T00:28:45.694Z,2.54
2022-11-29T00:33:52.587Z,2.31
2022-11-29T00:38:59.717Z,2.13
2022-11-29T00:44:06.617Z,2.36
2022-11-29T00:49:13.663Z,2.31
2022-11-29T00:54:20.548Z,2.35
2022-11-29T00:59:27.586Z,2.19
2022-11-29T01:04:34.478Z,2.33
2022-11-29T01:09:41.611Z,2.45
2022-11-29T01:14:48.551Z,2.51
2022-11-29T01:19:55.736Z,2.69
2022-11-29T01:25:02.692Z,2.89
2022-11-29T01:30:09.769Z,2.78
2022-11-29T01:35:16.733Z,2.64
2022-11-29T01:40:23.920Z,2.69
2022-11-29T01:45:30.881Z,2.44
2022-11-29T01:50:38.091Z,2.45
2022-11-29T01:55:45.046Z,2.69
2022-11-29T02:00:52.211Z,2.63
2022-11-29T02:05:59.055Z,2.49
2022-11-29T02:11:06.059Z,2.42
2022-11-29T02:16:13.066Z,2.44
2022-11-29T02:21:20.146Z,2.44
2022-11-29T02:26:27.167Z,2.61
2022-11-29T02:31:34.268Z,2.70
2022-11-29T02:36:41.196Z,2.67
2022-11-29T02:41:48.243Z,2.72
2022-11-29T02:46:55.154Z,2.38
2022-11-29T02:52:02.237Z,2.65
2022-11-29T02:57:09.121Z,2.44
2022-11-29T03:02:16.233Z,2.51
2022-11-29T03:07:23.209Z,2.57
2022-11-29T03:12:30.289Z,2.41
2022-11-29T03:17:37.180Z,2.49
2022-11-29T03:22:44.187Z,2.29
2022-11-29T03:27:51.110Z,2.67
2022-11-29T03:32:58.093Z,2.35
2022-11-29T03:38:05.006Z,2.26
2022-11-29T03:43:12.015Z,2.18
2022-11-29T03:48:18.935Z,2.12
2022-11-29T03:53:26.029Z,2.12
2022-11-29T03:58:32.964Z,2.21
2022-11-29T04:03:39.992Z,2.14
2022-11-29T04:08:46.946Z,2.13
2022-11-29T04:13:53.982Z,1.95
2022-11-29T04:19:00.868Z,2.11
2022-11-29T04:24:07.949Z,1.98
2022-11-29T04:29:14.909Z,1.94
2022-11-29T04:34:22.039Z,2.16
2022-11-29T04:39:29.026Z,2.04
2022-11-29T04:44:36.092Z,2.21
2022-11-29T04:49:42.991Z,2.39
2022-11-29T04:54:50.139Z,2.48
2022-11-29T04:59:57.068Z,2.54
2022-11-29T05:05:04.173Z,2.49
2022-11-29T05:10:11.103Z,2.67
2022-11-29T05:15:18.275Z,2.52
2022-11-29T05:20:25.198Z,2.81
2022-11-29T05:25:32.318Z,2.73
2022-11-29T05:30:39.258Z,3.15
2022-11-29T05:35:46.392Z,2.97
2022-11-29T05:40:53.319Z,3.02
2022-11-29T05:46:00.320Z,2.99
2022-11-29T05:51:07.222Z,3.00
2022-11-29T05:56:14.267Z,3.38
2022-11-29T06:01:21.423Z,3.52
2022-11-29T06:06:28.471Z,3.37
2022-11-29T06:11:35.380Z,3.37
2022-11-29T06:16:42.501Z,3.31
2022-11-29T06:21:49.494Z,3.65
2022-11-29T06:26:56.578Z,3.42
2022-11-29T06:32:03.448Z,3.76
2022-11-29T06:37:10.533Z,3.64
2022-11-29T06:42:17.480Z,3.85
2022-11-29T06:47:24.598Z,3.55
2022-11-29T06:52:31.511Z,3.60
2022-11-29T06:57:38.540Z,3.54
2022-11-29T07:02:45.438Z,3.88
2022-11-29T07:07:52.597Z,3.83
2022-11-29T07:12:59.512Z,3.99
2022-11-29T07:18:06.611Z,4.25
2022-11-29T07:23:13.507Z,3.74
2022-11-29T07:28:20.622Z,4.53
2022-11-29T07:33:27.571Z,3.62
2022-11-29T07:38:34.687Z,4.08
2022-11-29T07:43:41.597Z,3.57
2022-11-29T07:48:48.702Z,3.47
2022-11-29T07:53:55.612Z,3.10
2022-11-29T07:59:02.717Z,3.09
2022-11-29T08:04:09.641Z,2.75
2022-11-29T08:09:16.741Z,2.88
2022-11-29T08:14:23.631Z,2.47
2022-11-29T08:19:30.838Z,3.26
2022-11-29T08:24:37.758Z,2.80
2022-11-29T08:29:44.837Z,2.71
2022-11-29T08:34:51.788Z,2.82
2022-11-29T08:39:58.819Z,2.29
2022-11-29T08:45:05.783Z,2.39
2022-11-29T08:50:12.951Z,2.19
2022-11-29T08:55:19.849Z,2.62
2022-11-29T09:00:27.039Z,2.22
2022-11-29T09:05:33.986Z,2.06
2022-11-29T09:10:41.006Z,2.18
2022-11-29T09:15:47.940Z,2.24
2022-11-29T09:20:55.034Z,2.39
2022-11-29T09:26:02.079Z,2.37
2022-11-29T09:31:09.131Z,2.17
2022-11-29T09:36:16.073Z,2.28
2022-11-29T09:41:23.131Z,2.47
2022-11-29T09:46:30.086Z,2.51
2022-11-29T09:51:42.701Z,2.55
2022-11-29T09:56:43.631Z,2.26
2022-11-29T10:01:50.687Z,2.70
2022-11-29T10:06:57.612Z,2.50
2022-11-29T10:12:04.642Z,2.29
2022-11-29T10:17:11.595Z,2.35
2022-11-29T10:22:18.584Z,2.03
2022-11-29T10:27:25.509Z,2.31
2022-11-29T10:32:32.509Z,2.23
2022-11-29T10:37:39.408Z,2.35
2022-11-29T10:42:46.527Z,2.23
2022-11-29T10:47:53.421Z,2.54
2022-11-29T10:53:00.553Z,2.39
2022-11-29T10:58:07.501Z,2.61
2022-11-29T11:03:14.583Z,2.33
2022-11-29T11:08:21.600Z,4.16
2022-11-29T11:13:28.727Z,4.36
2022-11-29T11:18:35.640Z,3.79
2022-11-29T11:23:42.986Z,3.87
2022-11-29T11:28:49.106Z,2.96
2022-11-29T11:33:56.087Z,3.46
2022-11-29T11:39:03.032Z,3.96
2022-11-29T11:44:15.264Z,2.97
2022-11-29T11:49:16.683Z,3.05
2022-11-29T11:54:23.727Z,2.87
2022-11-29T11:59:30.648Z,4.01
2022-11-29T12:04:37.630Z,3.16
2022-11-29T12:09:44.540Z,3.29
2022-11-29T12:14:51.629Z,2.68
2022-11-29T12:19:58.561Z,2.91
2022-11-29T12:25:05.672Z,2.42
2022-11-29T12:30:13.143Z,2.81
2022-11-29T12:35:20.320Z,2.86
2022-11-29T12:40:27.290Z,2.57
2022-11-29T12:45:34.418Z,2.69
2022-11-29T12:50:41.359Z,2.55
2022-11-29T12:55:48.391Z,2.31
2022-11-29T13:00:55.334Z,2.16
2022-11-29T13:06:02.417Z,2.30
2022-11-29T13:11:09.327Z,2.23
2022-11-29T13:16:22.021Z,2.89
2022-11-29T13:21:22.913Z,3.20
2022-11-29T13:26:30.109Z,4.85
2022-11-29T13:31:37.085Z,6.21
2022-11-29T13:36:44.110Z,3.62
2022-11-29T13:41:51.063Z,3.70
2022-11-29T13:46:58.188Z,4.80
2022-11-29T13:52:05.261Z,5.44
2022-11-29T13:57:12.346Z,4.51
2022-11-29T14:02:19.368Z,6.54
2022-11-29T14:07:27.140Z,5.07
2022-11-29T14:12:34.172Z,2.47
2022-11-29T14:17:41.534Z,2.75
2022-11-29T14:22:48.447Z,2.68
2022-11-29T14:27:55.524Z,3.72
2022-11-29T14:33:02.423Z,3.14
2022-11-29T14:38:09.518Z,2.54
2022-11-29T14:43:16.491Z,3.63
2022-11-29T14:48:23.566Z,3.06
2022-11-29T14:53:30.517Z,3.79
2022-11-29T14:58:37.666Z,3.39
2022-11-29T15:03:44.642Z,3.70
2022-11-29T15:08:51.643Z,3.19
2022-11-29T15:13:58.558Z,3.29
2022-11-29T15:19:05.561Z,3.12
2022-11-29T15:24:12.544Z,3.18
2022-11-29T15:29:19.907Z,3.18
2022-11-29T15:34:26.825Z,3.99
2022-11-29T15:39:33.889Z,4.81
2022-11-29T15:44:40.827Z,6.02
2022-11-29T15:49:47.865Z,5.31
2022-11-29T15:54:54.773Z,7.06
2022-11-29T16:00:01.872Z,7.16
2022-11-29T16:05:08.781Z,5.27
2022-11-29T16:10:15.863Z,13.06
2022-11-29T16:15:22.760Z,6.49
2022-11-29T16:20:29.781Z,5.11
2022-11-29T16:25:37.886Z,4.44
2022-11-29T16:30:43.268Z,3.46
2022-11-29T16:35:50.183Z,3.23
2022-11-29T16:40:57.129Z,3.48
2022-11-29T16:46:04.115Z,5.55
2022-11-29T16:51:11.151Z,3.38
2022-11-29T16:56:18.072Z,5.21
2022-11-29T17:01:25.194Z,6.08
2022-11-29T17:06:32.059Z,7.21
2022-11-29T17:11:39.114Z,7.02
2022-11-29T17:16:46.109Z,7.11
2022-11-29T17:21:53.030Z,5.61
2022-11-29T17:26:59.953Z,3.57
2022-11-29T17:32:07.080Z,4.83
2022-11-29T17:37:13.969Z,3.37
2022-11-29T17:42:21.045Z,6.53
2022-11-29T17:47:27.948Z,21.18
2022-11-29T17:52:35.030Z,20.58
2022-11-29T17:57:41.922Z,4.48
2022-11-29T18:02:49.040Z,3.56
2022-11-29T18:07:55.962Z,3.52
2022-11-29T18:13:03.024Z,3.19
2022-11-29T18:18:09.965Z,3.01
2022-11-29T18:23:16.993Z,3.12
2022-11-29T18:28:23.900Z,3.61
2022-11-29T18:33:30.999Z,3.25
2022-11-29T18:38:37.905Z,3.15
2022-11-29T18:43:44.917Z,3.07
2022-11-29T18:48:51.848Z,2.97
2022-11-29T18:53:58.852Z,3.33
2022-11-29T18:59:05.742Z,6.10
2022-11-29T19:04:13.007Z,3.51
2022-11-29T19:09:19.949Z,3.30
2022-11-29T19:14:27.064Z,4.97
2022-11-29T19:19:33.973Z,3.59
2022-11-29T19:24:41.022Z,3.65
2022-11-29T19:29:48.081Z,3.71
2022-11-29T19:34:54.998Z,3.98
2022-11-29T19:40:02.021Z,3.85
2022-11-29T19:45:16.965Z,3.13
2022-11-29T19:50:15.666Z,2.92
2022-11-29T19:55:22.758Z,2.97
2022-11-29T20:00:29.729Z,2.95
2022-11-29T20:05:36.815Z,2.86
2022-11-29T20:10:43.761Z,2.94
2022-11-29T20:15:51.210Z,3.18
2022-11-29T20:20:58.135Z,3.24
2022-11-29T20:26:05.154Z,3.42
2022-11-29T20:31:12.158Z,3.32
2022-11-29T20:36:19.253Z,3.37
2022-11-29T20:41:26.204Z,3.26
2022-11-29T20:46:33.300Z,3.70
2022-11-29T20:51:40.244Z,3.77
2022-11-29T20:56:47.327Z,3.84
2022-11-29T21:01:54.429Z,3.85
2022-11-29T21:07:01.413Z,3.80
2022-11-29T21:12:08.288Z,3.71
2022-11-29T21:17:15.334Z,4.04
2022-11-29T21:22:22.268Z,4.03
2022-11-29T21:27:29.313Z,3.99
2022-11-29T21:32:36.240Z,4.24
2022-11-29T21:37:43.300Z,4.09
2022-11-29T21:42:50.200Z,4.12
2022-11-29T21:47:57.366Z,3.92
2022-11-29T21:53:04.303Z,3.75
2022-11-29T21:58:11.438Z,3.90
2022-11-29T22:03:18.356Z,4.05
2022-11-29T22:08:25.430Z,4.32
2022-11-29T22:13:32.393Z,4.10
2022-11-29T22:18:39.461Z,4.29
2022-11-29T22:23:46.379Z,3.85
2022-11-29T22:28:53.584Z,3.88
2022-11-29T22:34:00.496Z,4.24
2022-11-29T22:39:07.673Z,4.07
2022-11-29T22:44:14.585Z,4.18
2022-11-29T22:49:21.762Z,4.22
2022-11-29T22:54:28.731Z,4.09
2022-11-29T22:59:35.859Z,3.88
2022-11-29T23:04:42.830Z,3.57
2022-11-29T23:09:49.899Z,3.64
2022-11-29T23:14:57.206Z,3.50
2022-11-29T23:20:03.501Z,3.87
2022-11-29T23:25:10.454Z,3.50
2022-11-29T23:30:17.628Z,3.94
2022-11-29T23:35:24.532Z,3.86
2022-11-29T23:40:31.695Z,3.68
2022-11-29T23:45:38.655Z,3.82
2022-11-29T23:50:45.603Z,3.88
2022-11-29T23:55:52.543Z,3.73
